Nellysford, Virginia
Current Conditions -  °F | °C
As of 4:35 PM on Friday 31 Oct 2014 (Local Time) from KW13 Reporting Station
Overcast Overcast  
Wind Chill: 50°   Ceiling: 5000
Heat Index: 50°   Visibility: 10mi
Dew Point: 35°   Wind: 0mph
Humidity: 58%   Direction: NA
Pressure: 29.82"   Gusts: NA
Location:  37.91°N, 78.87°W
Report Text: KW13 312035Z AUTO 00000KT 10SM SCT043 OVC050 10/02 A2982 RMK AO1 T00980018
Loading
Personal Weather Stations






























Interactive Weather Map
Tropical Storm Tracking
New forecast layout! Learn more

10-Day Weather Forecast

Advertisements
Track Severe Weather on mobile